PWSweather.com
Personal Weather Stations
Station Observations
KTXDECATUR
Wildwood, Decatur, TX 76234

WildwoodDecatur, TX 76234

Lat: 33.2634, Lon: -97.6651

Elevation: 800

Station Type: Davis Vantage Pro 2

http://weather.wildwoodnaturist.com

Latest ConditionsUpdated 7:30:13 AM CDT Saturday, Oct 25, 2014
Currently Today's Max Today's Min Today's Average
Temperature 63.1°F17.3°C 70.6°F21.4°C 63.1°F17.3°C 66.0°F18.9°C
Dew Point 59.5°F15.3°C 62.3°F16.8°C 59.5°F15.3°C 60.7°F15.9°C
Winds 0.4 mph SSE0.6 kmh SSE 3.5 mph SSE5.6 kmh SSE - 1.8 mph 2.9 kmh
Wind Gusts 1.1 mph1.8 kmh 6.4 mph10.3 kmh - -
Humidity 88% 88% 75% 83%
Pressure 30.08 in1018.6 mb 30.08 in1018.6 mb 30.04 in1017.3 mb -
Hour Temp Dew Point Humidity Winds Wind Gusts Pressure Precip Precip Rate Daily Precip Total
07:30 AM 63.1°F17.3°C 59.5°F15.3°C 88% 0.4 mph SSE0.6 kmh SSE 1.1 mph1.8 kmh 30.08 in1018.6 mb 0.00 in0.0 mm 0.00 in/hr0.0 mm/hr 0.00 in0.0 mm
07:20 AM 63.3°F17.4°C 59.7°F15.4°C 88% 0.1 mph SSE0.2 kmh SSE 1.1 mph1.8 kmh 30.08 in1018.6 mb 0.00 in0.0 mm 0.00 in/hr0.0 mm/hr 0.00 in0.0 mm
07:15 AM 63.3°F17.4°C 59.7°F15.4°C 88% 0.2 mph SSE0.3 kmh SSE -- 30.08 in1018.6 mb 0.00 in0.0 mm 0.00 in/hr0.0 mm/hr 0.00 in0.0 mm
07:10 AM 63.4°F17.4°C 59.8°F15.4°C 88% 1.9 mph SSE3.1 kmh SSE 2.1 mph3.4 kmh 30.07 in1018.3 mb 0.00 in0.0 mm 0.00 in/hr0.0 mm/hr 0.00 in0.0 mm
07:00 AM 63.5°F17.5°C 59.9°F15.5°C 88% 3.2 mph SSE5.1 kmh SSE 4.3 mph6.9 kmh 30.07 in1018.3 mb 0.00 in0.0 mm 0.00 in/hr0.0 mm/hr 0.00 in0.0 mm
06:50 AM 63.6°F17.6°C 60.0°F15.6°C 88% 1.6 mph SSE2.6 kmh SSE 4.3 mph6.9 kmh 30.07 in1018.3 mb 0.00 in0.0 mm 0.00 in/hr0.0 mm/hr 0.00 in0.0 mm
06:45 AM 63.6°F17.6°C 60.0°F15.6°C 88% 1.7 mph SSE2.7 kmh SSE 4.3 mph6.9 kmh 30.07 in1018.3 mb 0.00 in0.0 mm 0.00 in/hr0.0 mm/hr 0.00 in0.0 mm
06:40 AM 63.7°F17.6°C 59.7°F15.4°C 87% 2.8 mph SSE4.5 kmh SSE 4.3 mph6.9 kmh 30.07 in1018.3 mb 0.00 in0.0 mm 0.00 in/hr0.0 mm/hr 0.00 in0.0 mm
06:30 AM 63.7°F17.6°C 59.8°F15.4°C 87% 2.6 mph SSE4.2 kmh SSE 4.3 mph6.9 kmh 30.07 in1018.3 mb 0.00 in0.0 mm 0.00 in/hr0.0 mm/hr 0.00 in0.0 mm
06:20 AM 63.8°F17.7°C 59.9°F15.5°C 87% 2.6 mph SSE4.2 kmh SSE 3.2 mph5.1 kmh 30.07 in1018.3 mb 0.00 in0.0 mm 0.00 in/hr0.0 mm/hr 0.00 in0.0 mm
06:15 AM 63.9°F17.7°C 60.0°F15.6°C 87% 2.7 mph SSE4.3 kmh SSE 3.2 mph5.1 kmh 30.07 in1018.3 mb 0.00 in0.0 mm 0.00 in/hr0.0 mm/hr 0.00 in0.0 mm
06:10 AM 64.0°F17.8°C 60.1°F15.6°C 87% 0.4 mph SSE0.6 kmh SSE -- 30.07 in1018.3 mb 0.00 in0.0 mm 0.00 in/hr0.0 mm/hr 0.00 in0.0 mm
06:00 AM 64.1°F17.8°C 60.2°F15.7°C 87% 2.5 mph SSE4.0 kmh SSE 4.3 mph6.9 kmh 30.07 in1018.3 mb 0.00 in0.0 mm 0.00 in/hr0.0 mm/hr 0.00 in0.0 mm
05:50 AM 64.2°F17.9°C 59.9°F15.5°C 86% 2.3 mph SSE3.7 kmh SSE 5.3 mph8.5 kmh 30.06 in1017.9 mb 0.00 in0.0 mm 0.00 in/hr0.0 mm/hr 0.00 in0.0 mm
05:45 AM 64.3°F17.9°C 60.0°F15.6°C 86% 1.6 mph SSE2.6 kmh SSE 4.3 mph6.9 kmh 30.06 in1017.9 mb 0.00 in0.0 mm 0.00 in/hr0.0 mm/hr 0.00 in0.0 mm
05:40 AM 64.3°F17.9°C 60.1°F15.6°C 86% 1.7 mph SSE2.7 kmh SSE 2.1 mph3.4 kmh 30.06 in1017.9 mb 0.00 in0.0 mm 0.00 in/hr0.0 mm/hr 0.00 in0.0 mm
05:30 AM 64.5°F18.1°C 60.2°F15.7°C 86% 2.4 mph SSE3.9 kmh SSE 3.2 mph5.1 kmh 30.06 in1017.9 mb 0.00 in0.0 mm 0.00 in/hr0.0 mm/hr 0.00 in0.0 mm
05:20 AM 64.6°F18.1°C 60.0°F15.6°C 85% 1.0 mph SSE1.6 kmh SSE 2.1 mph3.4 kmh 30.05 in1017.6 mb 0.00 in0.0 mm 0.00 in/hr0.0 mm/hr 0.00 in0.0 mm
05:15 AM 64.7°F18.2°C 60.1°F15.6°C 85% 1.4 mph SSE2.3 kmh SSE 3.2 mph5.1 kmh 30.05 in1017.6 mb 0.00 in0.0 mm 0.00 in/hr0.0 mm/hr 0.00 in0.0 mm
05:10 AM 64.8°F18.2°C 60.1°F15.6°C 85% 2.3 mph SSE3.7 kmh SSE 2.1 mph3.4 kmh 30.05 in1017.6 mb 0.00 in0.0 mm 0.00 in/hr0.0 mm/hr 0.00 in0.0 mm
05:00 AM 64.9°F18.3°C 60.3°F15.7°C 85% 2.7 mph SSE4.3 kmh SSE 3.2 mph5.1 kmh 30.05 in1017.6 mb 0.00 in0.0 mm 0.00 in/hr0.0 mm/hr 0.00 in0.0 mm
04:50 AM 65.0°F18.3°C 60.4°F15.8°C 85% 1.6 mph SSE2.6 kmh SSE 2.1 mph3.4 kmh 30.05 in1017.6 mb 0.00 in0.0 mm 0.00 in/hr0.0 mm/hr 0.00 in0.0 mm
04:45 AM 65.0°F18.3°C 60.0°F15.6°C 84% 0.1 mph SSE0.2 kmh SSE 3.2 mph5.1 kmh 30.05 in1017.6 mb 0.00 in0.0 mm 0.00 in/hr0.0 mm/hr 0.00 in0.0 mm
04:40 AM 65.1°F18.4°C 60.1°F15.6°C 84% 2.9 mph SSE4.7 kmh SSE 4.3 mph6.9 kmh 30.05 in1017.6 mb 0.00 in0.0 mm 0.00 in/hr0.0 mm/hr 0.00 in0.0 mm
04:30 AM 65.1°F18.4°C 60.1°F15.6°C 84% 2.7 mph SSE4.3 kmh SSE 4.3 mph6.9 kmh 30.05 in1017.6 mb 0.00 in0.0 mm 0.00 in/hr0.0 mm/hr 0.00 in0.0 mm
04:20 AM 65.2°F18.4°C 60.2°F15.7°C 84% 1.4 mph SSE2.3 kmh SSE 2.1 mph3.4 kmh 30.05 in1017.6 mb 0.00 in0.0 mm 0.00 in/hr0.0 mm/hr 0.00 in0.0 mm
04:15 AM 65.4°F18.6°C 60.4°F15.8°C 84% 1.8 mph SSE2.9 kmh SSE 3.2 mph5.1 kmh 30.05 in1017.6 mb 0.00 in0.0 mm 0.00 in/hr0.0 mm/hr 0.00 in0.0 mm
04:10 AM 65.5°F18.6°C 60.5°F15.8°C 84% 2.6 mph SSE4.2 kmh SSE 4.3 mph6.9 kmh 30.05 in1017.6 mb 0.00 in0.0 mm 0.00 in/hr0.0 mm/hr 0.00 in0.0 mm
04:00 AM 65.6°F18.7°C 60.6°F15.9°C 84% 1.2 mph SSE1.9 kmh SSE 4.3 mph6.9 kmh 30.05 in1017.6 mb 0.00 in0.0 mm 0.00 in/hr0.0 mm/hr 0.00 in0.0 mm
03:50 AM 65.5°F18.6°C 60.5°F15.8°C 84% 2.5 mph SSE4.0 kmh SSE 4.3 mph6.9 kmh 30.05 in1017.6 mb 0.00 in0.0 mm 0.00 in/hr0.0 mm/hr 0.00 in0.0 mm
03:45 AM 65.5°F18.6°C 60.5°F15.8°C 84% 1.5 mph SSE2.4 kmh SSE 1.1 mph1.8 kmh 30.04 in1017.3 mb 0.00 in0.0 mm 0.00 in/hr0.0 mm/hr 0.00 in0.0 mm
03:40 AM 65.5°F18.6°C 60.5°F15.8°C 84% 2.4 mph SSE3.9 kmh SSE 3.2 mph5.1 kmh 30.05 in1017.6 mb 0.00 in0.0 mm 0.00 in/hr0.0 mm/hr 0.00 in0.0 mm
03:30 AM 65.5°F18.6°C 60.5°F15.8°C 84% 2.0 mph SSE3.2 kmh SSE 3.2 mph5.1 kmh 30.05 in1017.6 mb 0.00 in0.0 mm 0.00 in/hr0.0 mm/hr 0.00 in0.0 mm
03:20 AM 65.6°F18.7°C 60.6°F15.9°C 84% 1.6 mph SSE2.6 kmh SSE 2.1 mph3.4 kmh 30.05 in1017.6 mb 0.00 in0.0 mm 0.00 in/hr0.0 mm/hr 0.00 in0.0 mm
03:15 AM 65.6°F18.7°C 60.6°F15.9°C 84% 1.5 mph SSE2.4 kmh SSE 2.1 mph3.4 kmh 30.05 in1017.6 mb 0.00 in0.0 mm 0.00 in/hr0.0 mm/hr 0.00 in0.0 mm
03:10 AM 65.7°F18.7°C 60.4°F15.8°C 83% 0.6 mph SSE1.0 kmh SSE 1.1 mph1.8 kmh 30.05 in1017.6 mb 0.00 in0.0 mm 0.00 in/hr0.0 mm/hr 0.00 in0.0 mm
03:00 AM 65.9°F18.8°C 60.6°F15.9°C 83% 0.7 mph SSE1.1 kmh SSE 2.1 mph3.4 kmh 30.05 in1017.6 mb 0.00 in0.0 mm 0.00 in/hr0.0 mm/hr 0.00 in0.0 mm
02:50 AM 66.1°F18.9°C 60.8°F16.0°C 83% 0.3 mph SSE0.5 kmh SSE 3.2 mph5.1 kmh 30.05 in1017.6 mb 0.00 in0.0 mm 0.00 in/hr0.0 mm/hr 0.00 in0.0 mm
02:45 AM 66.2°F19.0°C 60.9°F16.1°C 83% Calm Calm -- 30.05 in1017.6 mb 0.00 in0.0 mm 0.00 in/hr0.0 mm/hr 0.00 in0.0 mm
02:40 AM 66.3°F19.1°C 61.0°F16.1°C 83% 0.5 mph SSE0.8 kmh SSE 2.1 mph3.4 kmh 30.05 in1017.6 mb 0.00 in0.0 mm 0.00 in/hr0.0 mm/hr 0.00 in0.0 mm
02:30 AM 66.4°F19.1°C 60.7°F15.9°C 82% 1.9 mph SSE3.1 kmh SSE 3.2 mph5.1 kmh 30.05 in1017.6 mb 0.00 in0.0 mm 0.00 in/hr0.0 mm/hr 0.00 in0.0 mm
02:20 AM 66.6°F19.2°C 60.9°F16.1°C 82% 0.1 mph SSE0.2 kmh SSE 1.1 mph1.8 kmh 30.05 in1017.6 mb 0.00 in0.0 mm 0.00 in/hr0.0 mm/hr 0.00 in0.0 mm
02:15 AM 66.8°F19.3°C 61.1°F16.2°C 82% Calm Calm -- 30.05 in1017.6 mb 0.00 in0.0 mm 0.00 in/hr0.0 mm/hr 0.00 in0.0 mm
02:10 AM 66.9°F19.4°C 60.9°F16.1°C 81% 1.2 mph SSE1.9 kmh SSE 4.3 mph6.9 kmh 30.05 in1017.6 mb 0.00 in0.0 mm 0.00 in/hr0.0 mm/hr 0.00 in0.0 mm
02:00 AM 67.2°F19.6°C 61.2°F16.2°C 81% 1.9 mph SSE3.1 kmh SSE 3.2 mph5.1 kmh 30.05 in1017.6 mb 0.00 in0.0 mm 0.00 in/hr0.0 mm/hr 0.00 in0.0 mm
01:50 AM 67.5°F19.7°C 61.1°F16.2°C 80% 1.8 mph SSE2.9 kmh SSE 3.2 mph5.1 kmh 30.05 in1017.6 mb 0.00 in0.0 mm 0.00 in/hr0.0 mm/hr 0.00 in0.0 mm
01:45 AM 67.6°F19.8°C 61.2°F16.2°C 80% Calm Calm 3.2 mph5.1 kmh 30.05 in1017.6 mb 0.00 in0.0 mm 0.00 in/hr0.0 mm/hr 0.00 in0.0 mm
01:40 AM 67.8°F19.9°C 61.4°F16.3°C 80% 1.4 mph SSE2.3 kmh SSE 4.3 mph6.9 kmh 30.05 in1017.6 mb 0.00 in0.0 mm 0.00 in/hr0.0 mm/hr 0.00 in0.0 mm
01:30 AM 68.0°F20.0°C 61.6°F16.4°C 80% 2.5 mph SSE4.0 kmh SSE 3.2 mph5.1 kmh 30.05 in1017.6 mb 0.00 in0.0 mm 0.00 in/hr0.0 mm/hr 0.00 in0.0 mm
01:20 AM 68.2°F20.1°C 61.4°F16.3°C 79% 2.1 mph SSE3.4 kmh SSE 4.3 mph6.9 kmh 30.05 in1017.6 mb 0.00 in0.0 mm 0.00 in/hr0.0 mm/hr 0.00 in0.0 mm
01:15 AM 68.4°F20.2°C 61.6°F16.4°C 79% 1.6 mph SSE2.6 kmh SSE 3.2 mph5.1 kmh 30.05 in1017.6 mb 0.00 in0.0 mm 0.00 in/hr0.0 mm/hr 0.00 in0.0 mm
01:10 AM 68.5°F20.3°C 61.7°F16.5°C 79% 0.9 mph SSE1.4 kmh SSE 2.1 mph3.4 kmh 30.05 in1017.6 mb 0.00 in0.0 mm 0.00 in/hr0.0 mm/hr 0.00 in0.0 mm
01:00 AM 68.8°F20.4°C 61.7°F16.5°C 78% 2.8 mph SSE4.5 kmh SSE 6.4 mph10.3 kmh 30.05 in1017.6 mb 0.00 in0.0 mm 0.00 in/hr0.0 mm/hr 0.00 in0.0 mm
12:50 AM 69.0°F20.6°C 61.9°F16.6°C 78% 2.7 mph SSE4.3 kmh SSE 4.3 mph6.9 kmh 30.05 in1017.6 mb 0.00 in0.0 mm 0.00 in/hr0.0 mm/hr 0.00 in0.0 mm
12:45 AM 69.2°F20.7°C 61.7°F16.5°C 77% 3.0 mph SSE4.8 kmh SSE 5.3 mph8.5 kmh 30.05 in1017.6 mb 0.00 in0.0 mm 0.00 in/hr0.0 mm/hr 0.00 in0.0 mm
12:40 AM 69.3°F20.7°C 61.8°F16.6°C 77% 3.3 mph SSE5.3 kmh SSE 6.4 mph10.3 kmh 30.05 in1017.6 mb 0.00 in0.0 mm 0.00 in/hr0.0 mm/hr 0.00 in0.0 mm
12:30 AM 69.5°F20.8°C 62.0°F16.7°C 77% 2.0 mph SSE3.2 kmh SSE 5.3 mph8.5 kmh 30.05 in1017.6 mb 0.00 in0.0 mm 0.00 in/hr0.0 mm/hr 0.00 in0.0 mm
12:20 AM 69.9°F21.1°C 62.0°F16.7°C 76% 3.4 mph SSE5.5 kmh SSE 6.4 mph10.3 kmh 30.05 in1017.6 mb 0.00 in0.0 mm 0.00 in/hr0.0 mm/hr 0.00 in0.0 mm
12:15 AM 70.1°F21.2°C 62.2°F16.8°C 76% 1.9 mph SSE3.1 kmh SSE 6.4 mph10.3 kmh 30.05 in1017.6 mb 0.00 in0.0 mm 0.00 in/hr0.0 mm/hr 0.00 in0.0 mm
12:10 AM 70.2°F21.2°C 61.9°F16.6°C 75% 2.8 mph SSE4.5 kmh SSE 5.3 mph8.5 kmh 30.05 in1017.6 mb 0.00 in0.0 mm 0.00 in/hr0.0 mm/hr 0.00 in0.0 mm
12:00 AM 70.6°F21.4°C 62.3°F16.8°C 75% 3.5 mph SSE5.6 kmh SSE 6.4 mph10.3 kmh 30.05 in1017.6 mb 0.00 in0.0 mm 0.00 in/hr0.0 mm/hr 0.00 in0.0 mm